sensor_id;sensor_type;location;lat;lon;timestamp;P1;durP1;ratioP1;P2;durP2;ratioP2
82028;SDS011;71590;52.216;13.448;2023-12-20T00:00:36;5.90;;;5.40;;
82028;SDS011;71590;52.216;13.448;2023-12-20T00:03:04;5.23;;;4.70;;
82028;SDS011;71590;52.216;13.448;2023-12-20T00:05:31;5.37;;;4.87;;
82028;SDS011;71590;52.216;13.448;2023-12-20T00:08:01;4.90;;;4.50;;
82028;SDS011;71590;52.216;13.448;2023-12-20T00:10:28;5.07;;;4.67;;
82028;SDS011;71590;52.216;13.448;2023-12-20T00:12:54;5.10;;;4.60;;
82028;SDS011;71590;52.216;13.448;2023-12-20T00:15:20;5.20;;;4.70;;
82028;SDS011;71590;52.216;13.448;2023-12-20T00:17:47;5.40;;;4.90;;
82028;SDS011;71590;52.216;13.448;2023-12-20T00:20:14;5.20;;;4.70;;
82028;SDS011;71590;52.216;13.448;2023-12-20T00:22:41;4.87;;;4.47;;
82028;SDS011;71590;52.216;13.448;2023-12-20T00:25:07;6.67;;;5.23;;
82028;SDS011;71590;52.216;13.448;2023-12-20T00:27:34;4.97;;;4.57;;
82028;SDS011;71590;52.216;13.448;2023-12-20T00:30:00;5.33;;;4.83;;
82028;SDS011;71590;52.216;13.448;2023-12-20T00:32:27;6.23;;;5.53;;
82028;SDS011;71590;52.216;13.448;2023-12-20T00:34:53;5.13;;;4.73;;
82028;SDS011;71590;52.216;13.448;2023-12-20T00:37:20;5.67;;;5.03;;
82028;SDS011;71590;52.216;13.448;2023-12-20T00:39:46;5.00;;;4.53;;
82028;SDS011;71590;52.216;13.448;2023-12-20T00:42:13;5.40;;;4.90;;
82028;SDS011;71590;52.216;13.448;2023-12-20T00:44:39;5.67;;;5.17;;
82028;SDS011;71590;52.216;13.448;2023-12-20T00:47:05;5.17;;;4.67;;
82028;SDS011;71590;52.216;13.448;2023-12-20T00:49:32;5.07;;;4.67;;
82028;SDS011;71590;52.216;13.448;2023-12-20T00:51:58;6.20;;;5.50;;
82028;SDS011;71590;52.216;13.448;2023-12-20T00:54:25;5.87;;;5.37;;
82028;SDS011;71590;52.216;13.448;2023-12-20T00:56:52;6.70;;;6.10;;
82028;SDS011;71590;52.216;13.448;2023-12-20T00:59:19;6.70;;;5.97;;
82028;SDS011;71590;52.216;13.448;2023-12-20T01:01:45;5.93;;;5.33;;
82028;SDS011;71590;52.216;13.448;2023-12-20T01:04:11;6.17;;;5.63;;
82028;SDS011;71590;52.216;13.448;2023-12-20T01:06:38;6.43;;;5.83;;
82028;SDS011;71590;52.216;13.448;2023-12-20T01:09:05;6.60;;;6.00;;
82028;SDS011;71590;52.216;13.448;2023-12-20T01:11:31;6.77;;;6.07;;
82028;SDS011;71590;52.216;13.448;2023-12-20T01:13:57;7.30;;;6.60;;
82028;SDS011;71590;52.216;13.448;2023-12-20T01:16:24;7.27;;;6.57;;
82028;SDS011;71590;52.216;13.448;2023-12-20T01:18:50;6.77;;;6.17;;
82028;SDS011;71590;52.216;13.448;2023-12-20T01:21:17;6.60;;;6.00;;
82028;SDS011;71590;52.216;13.448;2023-12-20T01:23:43;7.27;;;6.57;;
82028;SDS011;71590;52.216;13.448;2023-12-20T01:26:09;7.60;;;6.90;;
82028;SDS011;71590;52.216;13.448;2023-12-20T01:28:36;6.87;;;6.27;;
82028;SDS011;71590;52.216;13.448;2023-12-20T01:31:02;6.77;;;6.17;;
82028;SDS011;71590;52.216;13.448;2023-12-20T01:33:29;7.80;;;7.00;;
82028;SDS011;71590;52.216;13.448;2023-12-20T01:35:55;7.10;;;5.87;;
82028;SDS011;71590;52.216;13.448;2023-12-20T01:38:22;7.47;;;6.60;;
82028;SDS011;71590;52.216;13.448;2023-12-20T01:40:48;7.70;;;6.90;;
82028;SDS011;71590;52.216;13.448;2023-12-20T01:43:15;7.90;;;7.10;;
82028;SDS011;71590;52.216;13.448;2023-12-20T01:45:41;8.20;;;7.50;;
82028;SDS011;71590;52.216;13.448;2023-12-20T01:48:08;8.80;;;7.73;;
82028;SDS011;71590;52.216;13.448;2023-12-20T01:50:35;9.53;;;8.47;;
82028;SDS011;71590;52.216;13.448;2023-12-20T01:53:02;9.40;;;8.30;;
82028;SDS011;71590;52.216;13.448;2023-12-20T01:55:30;11.83;;;10.13;;
82028;SDS011;71590;52.216;13.448;2023-12-20T01:57:57;10.60;;;9.50;;
82028;SDS011;71590;52.216;13.448;2023-12-20T02:00:24;10.70;;;9.03;;
82028;SDS011;71590;52.216;13.448;2023-12-20T02:02:53;10.83;;;9.13;;
82028;SDS011;71590;52.216;13.448;2023-12-20T02:05:19;9.07;;;8.17;;
82028;SDS011;71590;52.216;13.448;2023-12-20T02:07:46;10.80;;;8.70;;
82028;SDS011;71590;52.216;13.448;2023-12-20T02:10:13;9.30;;;8.37;;
82028;SDS011;71590;52.216;13.448;2023-12-20T02:12:40;11.47;;;9.50;;
82028;SDS011;71590;52.216;13.448;2023-12-20T02:15:07;10.13;;;9.03;;
82028;SDS011;71590;52.216;13.448;2023-12-20T02:17:33;10.47;;;7.37;;
82028;SDS011;71590;52.216;13.448;2023-12-20T02:20:00;9.90;;;7.87;;
82028;SDS011;71590;52.216;13.448;2023-12-20T02:22:27;8.30;;;7.40;;
82028;SDS011;71590;52.216;13.448;2023-12-20T02:24:53;8.43;;;7.60;;
82028;SDS011;71590;52.216;13.448;2023-12-20T02:27:20;10.73;;;7.80;;
82028;SDS011;71590;52.216;13.448;2023-12-20T02:29:47;9.67;;;7.80;;
82028;SDS011;71590;52.216;13.448;2023-12-20T02:32:17;8.47;;;7.57;;
82028;SDS011;71590;52.216;13.448;2023-12-20T02:34:44;8.67;;;7.60;;
82028;SDS011;71590;52.216;13.448;2023-12-20T02:37:11;8.07;;;7.27;;
82028;SDS011;71590;52.216;13.448;2023-12-20T02:39:37;8.77;;;7.77;;
82028;SDS011;71590;52.216;13.448;2023-12-20T02:42:04;8.87;;;7.97;;
82028;SDS011;71590;52.216;13.448;2023-12-20T02:44:30;8.33;;;7.50;;
82028;SDS011;71590;52.216;13.448;2023-12-20T02:46:57;8.97;;;7.37;;
82028;SDS011;71590;52.216;13.448;2023-12-20T02:49:23;8.33;;;7.47;;
82028;SDS011;71590;52.216;13.448;2023-12-20T02:51:50;7.63;;;6.93;;
82028;SDS011;71590;52.216;13.448;2023-12-20T02:54:17;9.03;;;7.87;;
82028;SDS011;71590;52.216;13.448;2023-12-20T02:56:44;9.67;;;7.70;;
82028;SDS011;71590;52.216;13.448;2023-12-20T02:59:10;10.37;;;8.80;;
82028;SDS011;71590;52.216;13.448;2023-12-20T03:01:44;11.50;;;8.50;;
82028;SDS011;71590;52.216;13.448;2023-12-20T03:04:11;9.37;;;8.37;;
82028;SDS011;71590;52.216;13.448;2023-12-20T03:06:38;8.63;;;7.43;;
82028;SDS011;71590;52.216;13.448;2023-12-20T03:09:05;9.03;;;7.90;;
82028;SDS011;71590;52.216;13.448;2023-12-20T03:11:31;7.77;;;6.97;;
82028;SDS011;71590;52.216;13.448;2023-12-20T03:13:58;8.50;;;7.00;;
82028;SDS011;71590;52.216;13.448;2023-12-20T03:16:25;6.90;;;6.30;;
82028;SDS011;71590;52.216;13.448;2023-12-20T03:18:52;6.10;;;5.50;;
82028;SDS011;71590;52.216;13.448;2023-12-20T03:21:19;6.80;;;6.00;;
82028;SDS011;71590;52.216;13.448;2023-12-20T03:23:46;7.47;;;6.67;;
82028;SDS011;71590;52.216;13.448;2023-12-20T03:26:12;6.63;;;5.97;;
82028;SDS011;71590;52.216;13.448;2023-12-20T03:28:39;6.47;;;5.87;;
82028;SDS011;71590;52.216;13.448;2023-12-20T03:31:06;6.93;;;6.23;;
82028;SDS011;71590;52.216;13.448;2023-12-20T03:33:33;7.70;;;6.93;;
82028;SDS011;71590;52.216;13.448;2023-12-20T03:35:59;7.57;;;6.87;;
82028;SDS011;71590;52.216;13.448;2023-12-20T03:38:26;6.93;;;6.23;;
82028;SDS011;71590;52.216;13.448;2023-12-20T03:40:53;8.50;;;7.60;;
82028;SDS011;71590;52.216;13.448;2023-12-20T03:43:19;7.80;;;7.00;;
82028;SDS011;71590;52.216;13.448;2023-12-20T03:45:46;7.33;;;6.47;;
82028;SDS011;71590;52.216;13.448;2023-12-20T03:48:13;7.97;;;5.90;;
82028;SDS011;71590;52.216;13.448;2023-12-20T03:50:40;7.70;;;6.20;;
82028;SDS011;71590;52.216;13.448;2023-12-20T03:53:06;7.27;;;5.40;;
82028;SDS011;71590;52.216;13.448;2023-12-20T03:55:33;6.47;;;5.80;;
82028;SDS011;71590;52.216;13.448;2023-12-20T03:57:59;5.53;;;5.03;;
82028;SDS011;71590;52.216;13.448;2023-12-20T04:00:26;5.93;;;5.27;;
82028;SDS011;71590;52.216;13.448;2023-12-20T04:02:53;6.63;;;4.90;;
82028;SDS011;71590;52.216;13.448;2023-12-20T04:05:19;6.97;;;4.73;;
82028;SDS011;71590;52.216;13.448;2023-12-20T04:07:46;5.40;;;4.80;;
82028;SDS011;71590;52.216;13.448;2023-12-20T04:10:14;5.27;;;4.77;;
82028;SDS011;71590;52.216;13.448;2023-12-20T04:12:40;5.90;;;5.40;;
82028;SDS011;71590;52.216;13.448;2023-12-20T04:15:09;5.60;;;5.00;;
82028;SDS011;71590;52.216;13.448;2023-12-20T04:17:36;5.50;;;5.00;;
82028;SDS011;71590;52.216;13.448;2023-12-20T04:20:03;6.83;;;5.27;;
82028;SDS011;71590;52.216;13.448;2023-12-20T04:22:31;5.47;;;4.97;;
82028;SDS011;71590;52.216;13.448;2023-12-20T04:24:58;8.50;;;5.80;;
82028;SDS011;71590;52.216;13.448;2023-12-20T04:27:24;5.90;;;4.63;;
82028;SDS011;71590;52.216;13.448;2023-12-20T04:29:51;6.93;;;5.00;;
82028;SDS011;71590;52.216;13.448;2023-12-20T04:32:18;5.83;;;5.20;;
82028;SDS011;71590;52.216;13.448;2023-12-20T04:34:44;5.80;;;5.30;;
82028;SDS011;71590;52.216;13.448;2023-12-20T04:37:11;6.97;;;5.57;;
82028;SDS011;71590;52.216;13.448;2023-12-20T04:39:38;6.40;;;5.80;;
82028;SDS011;71590;52.216;13.448;2023-12-20T04:42:06;8.17;;;5.70;;
82028;SDS011;71590;52.216;13.448;2023-12-20T04:44:33;5.83;;;5.10;;
82028;SDS011;71590;52.216;13.448;2023-12-20T04:46:59;5.87;;;4.97;;
82028;SDS011;71590;52.216;13.448;2023-12-20T04:49:26;6.83;;;5.53;;
82028;SDS011;71590;52.216;13.448;2023-12-20T04:51:53;4.83;;;4.43;;
82028;SDS011;71590;52.216;13.448;2023-12-20T04:54:20;6.80;;;5.37;;
82028;SDS011;71590;52.216;13.448;2023-12-20T04:56:46;9.53;;;5.63;;
82028;SDS011;71590;52.216;13.448;2023-12-20T04:59:13;5.93;;;5.33;;
82028;SDS011;71590;52.216;13.448;2023-12-20T05:01:40;6.20;;;5.23;;
82028;SDS011;71590;52.216;13.448;2023-12-20T05:04:07;8.13;;;6.10;;
82028;SDS011;71590;52.216;13.448;2023-12-20T05:06:34;7.93;;;6.27;;
82028;SDS011;71590;52.216;13.448;2023-12-20T05:09:01;13.10;;;8.83;;
82028;SDS011;71590;52.216;13.448;2023-12-20T05:11:27;10.87;;;8.30;;
82028;SDS011;71590;52.216;13.448;2023-12-20T05:13:54;9.53;;;7.13;;
82028;SDS011;71590;52.216;13.448;2023-12-20T05:16:21;11.27;;;8.10;;
82028;SDS011;71590;52.216;13.448;2023-12-20T05:18:48;8.00;;;7.23;;
82028;SDS011;71590;52.216;13.448;2023-12-20T05:21:16;10.20;;;8.93;;
82028;SDS011;71590;52.216;13.448;2023-12-20T05:23:43;11.47;;;7.60;;
82028;SDS011;71590;52.216;13.448;2023-12-20T05:26:10;9.83;;;7.60;;
82028;SDS011;71590;52.216;13.448;2023-12-20T05:28:36;10.53;;;8.10;;
82028;SDS011;71590;52.216;13.448;2023-12-20T05:31:03;9.87;;;8.10;;
82028;SDS011;71590;52.216;13.448;2023-12-20T05:33:30;8.57;;;6.90;;
82028;SDS011;71590;52.216;13.448;2023-12-20T05:35:57;9.43;;;8.43;;
82028;SDS011;71590;52.216;13.448;2023-12-20T05:38:24;10.83;;;8.70;;
82028;SDS011;71590;52.216;13.448;2023-12-20T05:40:50;11.40;;;9.07;;
82028;SDS011;71590;52.216;13.448;2023-12-20T05:43:17;9.00;;;8.10;;
82028;SDS011;71590;52.216;13.448;2023-12-20T05:45:44;10.13;;;9.13;;
82028;SDS011;71590;52.216;13.448;2023-12-20T05:48:11;8.77;;;7.97;;
82028;SDS011;71590;52.216;13.448;2023-12-20T05:50:38;8.50;;;7.70;;
82028;SDS011;71590;52.216;13.448;2023-12-20T05:53:06;9.47;;;7.53;;
82028;SDS011;71590;52.216;13.448;2023-12-20T05:55:33;9.37;;;5.90;;
82028;SDS011;71590;52.216;13.448;2023-12-20T05:58:00;10.17;;;6.27;;
82028;SDS011;71590;52.216;13.448;2023-12-20T06:00:28;7.37;;;5.43;;
82028;SDS011;71590;52.216;13.448;2023-12-20T06:02:55;9.07;;;5.37;;
82028;SDS011;71590;52.216;13.448;2023-12-20T06:05:21;8.37;;;5.80;;
82028;SDS011;71590;52.216;13.448;2023-12-20T06:07:48;9.53;;;5.67;;
82028;SDS011;71590;52.216;13.448;2023-12-20T06:10:17;12.93;;;6.27;;
82028;SDS011;71590;52.216;13.448;2023-12-20T06:12:44;8.97;;;5.47;;
82028;SDS011;71590;52.216;13.448;2023-12-20T06:15:11;9.70;;;5.20;;
82028;SDS011;71590;52.216;13.448;2023-12-20T06:17:38;8.40;;;5.53;;
82028;SDS011;71590;52.216;13.448;2023-12-20T06:20:04;12.23;;;6.07;;
82028;SDS011;71590;52.216;13.448;2023-12-20T06:22:35;9.23;;;4.77;;
82028;SDS011;71590;52.216;13.448;2023-12-20T06:25:03;6.20;;;4.40;;
82028;SDS011;71590;52.216;13.448;2023-12-20T06:27:29;9.20;;;4.83;;
82028;SDS011;71590;52.216;13.448;2023-12-20T06:29:56;7.53;;;4.00;;
82028;SDS011;71590;52.216;13.448;2023-12-20T06:32:24;7.57;;;4.07;;
82028;SDS011;71590;52.216;13.448;2023-12-20T06:34:51;5.40;;;3.37;;
82028;SDS011;71590;52.216;13.448;2023-12-20T06:37:18;6.70;;;3.43;;
82028;SDS011;71590;52.216;13.448;2023-12-20T06:39:45;10.27;;;4.23;;
82028;SDS011;71590;52.216;13.448;2023-12-20T06:42:13;6.43;;;3.70;;
82028;SDS011;71590;52.216;13.448;2023-12-20T06:44:39;4.30;;;3.23;;
82028;SDS011;71590;52.216;13.448;2023-12-20T06:47:06;8.00;;;2.97;;
82028;SDS011;71590;52.216;13.448;2023-12-20T06:49:33;8.40;;;3.37;;
82028;SDS011;71590;52.216;13.448;2023-12-20T06:52:00;9.53;;;4.27;;
82028;SDS011;71590;52.216;13.448;2023-12-20T06:54:27;7.00;;;3.90;;
82028;SDS011;71590;52.216;13.448;2023-12-20T06:56:53;9.70;;;2.90;;
82028;SDS011;71590;52.216;13.448;2023-12-20T06:59:20;10.20;;;2.60;;
82028;SDS011;71590;52.216;13.448;2023-12-20T07:01:47;8.77;;;2.57;;
82028;SDS011;71590;52.216;13.448;2023-12-20T07:04:14;10.00;;;3.20;;
82028;SDS011;71590;52.216;13.448;2023-12-20T07:06:41;8.70;;;2.60;;
82028;SDS011;71590;52.216;13.448;2023-12-20T07:09:07;6.13;;;2.53;;
82028;SDS011;71590;52.216;13.448;2023-12-20T07:11:34;6.00;;;2.23;;
82028;SDS011;71590;52.216;13.448;2023-12-20T07:14:00;4.03;;;2.90;;
82028;SDS011;71590;52.216;13.448;2023-12-20T07:16:27;8.47;;;2.30;;
82028;SDS011;71590;52.216;13.448;2023-12-20T07:18:54;7.10;;;2.43;;
82028;SDS011;71590;52.216;13.448;2023-12-20T07:21:20;9.47;;;2.27;;
82028;SDS011;71590;52.216;13.448;2023-12-20T07:23:47;7.53;;;2.50;;
82028;SDS011;71590;52.216;13.448;2023-12-20T07:26:15;9.17;;;2.60;;
82028;SDS011;71590;52.216;13.448;2023-12-20T07:28:42;4.40;;;1.93;;
82028;SDS011;71590;52.216;13.448;2023-12-20T07:31:08;6.40;;;2.20;;
82028;SDS011;71590;52.216;13.448;2023-12-20T07:33:35;11.63;;;3.10;;
82028;SDS011;71590;52.216;13.448;2023-12-20T07:36:05;9.27;;;3.37;;
82028;SDS011;71590;52.216;13.448;2023-12-20T07:38:32;8.53;;;3.07;;
82028;SDS011;71590;52.216;13.448;2023-12-20T07:40:59;7.43;;;2.10;;
82028;SDS011;71590;52.216;13.448;2023-12-20T07:43:26;14.53;;;2.73;;
82028;SDS011;71590;52.216;13.448;2023-12-20T07:45:54;8.53;;;2.40;;
82028;SDS011;71590;52.216;13.448;2023-12-20T07:48:22;7.83;;;2.40;;
82028;SDS011;71590;52.216;13.448;2023-12-20T07:50:49;7.33;;;2.80;;
82028;SDS011;71590;52.216;13.448;2023-12-20T07:53:17;8.30;;;1.93;;
82028;SDS011;71590;52.216;13.448;2023-12-20T07:55:43;6.93;;;2.40;;
82028;SDS011;71590;52.216;13.448;2023-12-20T07:58:10;4.43;;;1.70;;
82028;SDS011;71590;52.216;13.448;2023-12-20T08:00:36;5.53;;;1.97;;
82028;SDS011;71590;52.216;13.448;2023-12-20T08:03:03;8.97;;;1.97;;
82028;SDS011;71590;52.216;13.448;2023-12-20T08:05:30;7.50;;;1.63;;
82028;SDS011;71590;52.216;13.448;2023-12-20T08:07:56;7.07;;;1.80;;
82028;SDS011;71590;52.216;13.448;2023-12-20T08:10:23;7.83;;;2.13;;
82028;SDS011;71590;52.216;13.448;2023-12-20T08:12:50;9.17;;;1.97;;
82028;SDS011;71590;52.216;13.448;2023-12-20T08:15:17;3.77;;;1.63;;
82028;SDS011;71590;52.216;13.448;2023-12-20T08:17:44;8.43;;;2.17;;
82028;SDS011;71590;52.216;13.448;2023-12-20T08:20:12;6.47;;;1.70;;
82028;SDS011;71590;52.216;13.448;2023-12-20T08:22:52;4.53;;;1.87;;
82028;SDS011;71590;52.216;13.448;2023-12-20T08:25:19;4.53;;;2.20;;
82028;SDS011;71590;52.216;13.448;2023-12-20T08:27:45;6.93;;;2.30;;
82028;SDS011;71590;52.216;13.448;2023-12-20T08:30:12;7.20;;;1.80;;
82028;SDS011;71590;52.216;13.448;2023-12-20T08:32:39;6.87;;;1.90;;
82028;SDS011;71590;52.216;13.448;2023-12-20T08:35:07;12.53;;;1.93;;
82028;SDS011;71590;52.216;13.448;2023-12-20T08:37:34;8.43;;;1.90;;
82028;SDS011;71590;52.216;13.448;2023-12-20T08:40:02;7.73;;;2.00;;
82028;SDS011;71590;52.216;13.448;2023-12-20T08:42:29;6.50;;;1.90;;
82028;SDS011;71590;52.216;13.448;2023-12-20T08:44:58;4.50;;;1.70;;
82028;SDS011;71590;52.216;13.448;2023-12-20T08:47:25;5.87;;;1.87;;
82028;SDS011;71590;52.216;13.448;2023-12-20T08:49:52;7.17;;;1.63;;
82028;SDS011;71590;52.216;13.448;2023-12-20T08:53:03;6.87;;;1.90;;
82028;SDS011;71590;52.216;13.448;2023-12-20T08:55:45;6.67;;;2.00;;
82028;SDS011;71590;52.216;13.448;2023-12-20T09:01:17;5.03;;;2.40;;
82028;SDS011;71590;52.216;13.448;2023-12-20T09:03:44;7.17;;;1.70;;
82028;SDS011;71590;52.216;13.448;2023-12-20T09:06:11;3.90;;;2.00;;
82028;SDS011;71590;52.216;13.448;2023-12-20T09:08:38;6.90;;;2.33;;
82028;SDS011;71590;52.216;13.448;2023-12-20T09:11:04;5.80;;;2.13;;
82028;SDS011;71590;52.216;13.448;2023-12-20T09:13:31;6.73;;;1.67;;
82028;SDS011;71590;52.216;13.448;2023-12-20T09:15:58;8.23;;;2.13;;
82028;SDS011;71590;52.216;13.448;2023-12-20T09:18:30;6.13;;;1.80;;
82028;SDS011;71590;52.216;13.448;2023-12-20T09:21:49;6.43;;;1.77;;
82028;SDS011;71590;52.216;13.448;2023-12-20T09:24:44;5.77;;;2.17;;
82028;SDS011;71590;52.216;13.448;2023-12-20T09:27:11;7.83;;;3.00;;
82028;SDS011;71590;52.216;13.448;2023-12-20T09:29:54;9.03;;;2.33;;
82028;SDS011;71590;52.216;13.448;2023-12-20T09:32:36;5.40;;;2.17;;
82028;SDS011;71590;52.216;13.448;2023-12-20T09:35:37;6.60;;;2.07;;
82028;SDS011;71590;52.216;13.448;2023-12-20T09:38:13;5.57;;;2.10;;
82028;SDS011;71590;52.216;13.448;2023-12-20T09:40:42;10.20;;;2.57;;
82028;SDS011;71590;52.216;13.448;2023-12-20T09:43:15;8.43;;;2.53;;
82028;SDS011;71590;52.216;13.448;2023-12-20T09:45:47;5.40;;;2.00;;
82028;SDS011;71590;52.216;13.448;2023-12-20T09:48:32;5.07;;;2.13;;
82028;SDS011;71590;52.216;13.448;2023-12-20T09:50:59;10.40;;;2.33;;
82028;SDS011;71590;52.216;13.448;2023-12-20T09:53:25;7.30;;;2.23;;
82028;SDS011;71590;52.216;13.448;2023-12-20T09:55:58;5.33;;;2.20;;
82028;SDS011;71590;52.216;13.448;2023-12-20T09:58:41;5.53;;;2.20;;
82028;SDS011;71590;52.216;13.448;2023-12-20T10:01:07;4.77;;;2.10;;
82028;SDS011;71590;52.216;13.448;2023-12-20T10:03:34;6.97;;;2.27;;
82028;SDS011;71590;52.216;13.448;2023-12-20T10:06:06;12.23;;;2.20;;
82028;SDS011;71590;52.216;13.448;2023-12-20T10:08:33;8.73;;;2.17;;
82028;SDS011;71590;52.216;13.448;2023-12-20T10:11:02;7.80;;;2.47;;
82028;SDS011;71590;52.216;13.448;2023-12-20T10:13:31;8.77;;;1.50;;
82028;SDS011;71590;52.216;13.448;2023-12-20T10:16:18;5.13;;;1.60;;
82028;SDS011;71590;52.216;13.448;2023-12-20T10:22:03;9.37;;;2.30;;
82028;SDS011;71590;52.216;13.448;2023-12-20T10:24:30;4.20;;;2.00;;
82028;SDS011;71590;52.216;13.448;2023-12-20T10:27:04;5.03;;;2.30;;
82028;SDS011;71590;52.216;13.448;2023-12-20T10:29:35;5.30;;;2.10;;
82028;SDS011;71590;52.216;13.448;2023-12-20T10:32:23;3.80;;;1.63;;
82028;SDS011;71590;52.216;13.448;2023-12-20T10:34:51;5.83;;;2.20;;
82028;SDS011;71590;52.216;13.448;2023-12-20T10:37:18;9.70;;;3.20;;
82028;SDS011;71590;52.216;13.448;2023-12-20T10:39:49;2.77;;;1.53;;
82028;SDS011;71590;52.216;13.448;2023-12-20T10:42:20;7.97;;;2.10;;
82028;SDS011;71590;52.216;13.448;2023-12-20T10:44:48;7.60;;;2.17;;
82028;SDS011;71590;52.216;13.448;2023-12-20T10:47:15;6.03;;;1.80;;
82028;SDS011;71590;52.216;13.448;2023-12-20T10:49:43;5.07;;;1.97;;
82028;SDS011;71590;52.216;13.448;2023-12-20T10:52:11;13.63;;;2.40;;
82028;SDS011;71590;52.216;13.448;2023-12-20T10:54:38;10.30;;;2.33;;
82028;SDS011;71590;52.216;13.448;2023-12-20T10:57:05;9.00;;;2.90;;
82028;SDS011;71590;52.216;13.448;2023-12-20T10:59:33;4.33;;;2.10;;
82028;SDS011;71590;52.216;13.448;2023-12-20T11:02:42;4.37;;;2.00;;
82028;SDS011;71590;52.216;13.448;2023-12-20T11:07:57;5.87;;;2.10;;
82028;SDS011;71590;52.216;13.448;2023-12-20T11:10:40;4.70;;;1.87;;
82028;SDS011;71590;52.216;13.448;2023-12-20T11:13:20;4.97;;;1.60;;
82028;SDS011;71590;52.216;13.448;2023-12-20T11:15:50;6.40;;;2.73;;
82028;SDS011;71590;52.216;13.448;2023-12-20T11:18:17;5.53;;;1.67;;
82028;SDS011;71590;52.216;13.448;2023-12-20T11:20:43;5.20;;;2.20;;
82028;SDS011;71590;52.216;13.448;2023-12-20T11:23:10;4.80;;;2.27;;
82028;SDS011;71590;52.216;13.448;2023-12-20T11:25:47;6.90;;;1.90;;
82028;SDS011;71590;52.216;13.448;2023-12-20T11:28:15;7.67;;;2.10;;
82028;SDS011;71590;52.216;13.448;2023-12-20T11:30:49;7.53;;;2.40;;
82028;SDS011;71590;52.216;13.448;2023-12-20T11:33:17;3.60;;;1.77;;
82028;SDS011;71590;52.216;13.448;2023-12-20T11:35:47;7.03;;;2.30;;
82028;SDS011;71590;52.216;13.448;2023-12-20T11:38:14;7.93;;;2.27;;
82028;SDS011;71590;52.216;13.448;2023-12-20T11:40:41;2.93;;;1.63;;
82028;SDS011;71590;52.216;13.448;2023-12-20T11:43:08;6.83;;;1.73;;
82028;SDS011;71590;52.216;13.448;2023-12-20T11:45:35;8.17;;;2.13;;
82028;SDS011;71590;52.216;13.448;2023-12-20T11:48:02;5.67;;;2.00;;
82028;SDS011;71590;52.216;13.448;2023-12-20T11:50:29;7.47;;;2.00;;
82028;SDS011;71590;52.216;13.448;2023-12-20T11:52:57;7.40;;;2.33;;
82028;SDS011;71590;52.216;13.448;2023-12-20T11:55:24;5.00;;;2.10;;
82028;SDS011;71590;52.216;13.448;2023-12-20T11:57:51;9.40;;;2.80;;
82028;SDS011;71590;52.216;13.448;2023-12-20T12:00:18;6.03;;;2.27;;
82028;SDS011;71590;52.216;13.448;2023-12-20T12:02:56;6.90;;;2.67;;
82028;SDS011;71590;52.216;13.448;2023-12-20T12:05:24;7.90;;;2.50;;
82028;SDS011;71590;52.216;13.448;2023-12-20T12:07:51;5.33;;;2.20;;
82028;SDS011;71590;52.216;13.448;2023-12-20T12:10:18;8.73;;;2.70;;
82028;SDS011;71590;52.216;13.448;2023-12-20T12:12:44;6.30;;;2.40;;
82028;SDS011;71590;52.216;13.448;2023-12-20T12:15:11;5.77;;;2.80;;
82028;SDS011;71590;52.216;13.448;2023-12-20T12:17:38;5.93;;;2.83;;
82028;SDS011;71590;52.216;13.448;2023-12-20T12:20:05;4.20;;;2.13;;
82028;SDS011;71590;52.216;13.448;2023-12-20T12:22:33;4.87;;;2.57;;
82028;SDS011;71590;52.216;13.448;2023-12-20T12:25:08;2.83;;;2.00;;
82028;SDS011;71590;52.216;13.448;2023-12-20T12:27:35;6.13;;;2.27;;
82028;SDS011;71590;52.216;13.448;2023-12-20T12:30:03;5.13;;;2.53;;
82028;SDS011;71590;52.216;13.448;2023-12-20T12:32:30;4.10;;;2.13;;
82028;SDS011;71590;52.216;13.448;2023-12-20T12:34:57;3.77;;;2.00;;
82028;SDS011;71590;52.216;13.448;2023-12-20T12:37:24;7.50;;;2.13;;
82028;SDS011;71590;52.216;13.448;2023-12-20T12:39:53;6.73;;;2.43;;
82028;SDS011;71590;52.216;13.448;2023-12-20T12:42:19;6.17;;;1.90;;
82028;SDS011;71590;52.216;13.448;2023-12-20T12:44:47;8.70;;;2.20;;
82028;SDS011;71590;52.216;13.448;2023-12-20T12:47:13;5.20;;;1.90;;
82028;SDS011;71590;52.216;13.448;2023-12-20T12:49:40;3.07;;;2.00;;
82028;SDS011;71590;52.216;13.448;2023-12-20T12:52:07;6.27;;;2.13;;
82028;SDS011;71590;52.216;13.448;2023-12-20T12:54:33;5.60;;;1.87;;
82028;SDS011;71590;52.216;13.448;2023-12-20T12:57:01;4.37;;;2.00;;
82028;SDS011;71590;52.216;13.448;2023-12-20T12:59:28;5.97;;;2.57;;
82028;SDS011;71590;52.216;13.448;2023-12-20T13:01:54;4.43;;;2.13;;
82028;SDS011;71590;52.216;13.448;2023-12-20T13:04:21;7.93;;;2.60;;
82028;SDS011;71590;52.216;13.448;2023-12-20T13:06:48;5.23;;;2.40;;
82028;SDS011;71590;52.216;13.448;2023-12-20T13:09:15;4.27;;;2.67;;
82028;SDS011;71590;52.216;13.448;2023-12-20T13:11:43;7.50;;;2.60;;
82028;SDS011;71590;52.216;13.448;2023-12-20T13:14:10;3.77;;;2.17;;
82028;SDS011;71590;52.216;13.448;2023-12-20T13:16:41;7.30;;;2.40;;
82028;SDS011;71590;52.216;13.448;2023-12-20T13:19:08;6.50;;;2.60;;
82028;SDS011;71590;52.216;13.448;2023-12-20T13:21:36;4.03;;;2.23;;
82028;SDS011;71590;52.216;13.448;2023-12-20T13:24:03;7.13;;;2.70;;
82028;SDS011;71590;52.216;13.448;2023-12-20T13:26:30;6.10;;;2.60;;
82028;SDS011;71590;52.216;13.448;2023-12-20T13:28:56;5.90;;;2.60;;
82028;SDS011;71590;52.216;13.448;2023-12-20T13:31:23;8.80;;;2.70;;
82028;SDS011;71590;52.216;13.448;2023-12-20T13:33:50;10.27;;;2.90;;
82028;SDS011;71590;52.216;13.448;2023-12-20T13:36:19;7.93;;;2.97;;
82028;SDS011;71590;52.216;13.448;2023-12-20T13:38:46;6.67;;;2.60;;
82028;SDS011;71590;52.216;13.448;2023-12-20T13:41:14;5.93;;;2.67;;
82028;SDS011;71590;52.216;13.448;2023-12-20T13:43:41;4.37;;;1.90;;
82028;SDS011;71590;52.216;13.448;2023-12-20T13:46:07;4.93;;;2.30;;
82028;SDS011;71590;52.216;13.448;2023-12-20T13:48:34;4.97;;;2.50;;
82028;SDS011;71590;52.216;13.448;2023-12-20T13:51:01;10.23;;;2.60;;
82028;SDS011;71590;52.216;13.448;2023-12-20T13:53:29;7.47;;;3.00;;
82028;SDS011;71590;52.216;13.448;2023-12-20T13:55:55;8.40;;;2.63;;
82028;SDS011;71590;52.216;13.448;2023-12-20T13:58:22;11.97;;;3.30;;
82028;SDS011;71590;52.216;13.448;2023-12-20T14:00:50;12.40;;;3.93;;
82028;SDS011;71590;52.216;13.448;2023-12-20T14:03:37;13.50;;;5.40;;
82028;SDS011;71590;52.216;13.448;2023-12-20T14:06:26;0.90;;;0.90;;
82028;SDS011;71590;52.216;13.448;2023-12-20T14:08:53;0.00;;;0.00;;
82028;SDS011;71590;52.216;13.448;2023-12-20T14:11:20;0.40;;;0.40;;
82028;SDS011;71590;52.216;13.448;2023-12-20T14:13:49;0.00;;;0.00;;
82028;SDS011;71590;52.216;13.448;2023-12-20T14:16:16;0.00;;;0.00;;
82028;SDS011;71590;52.216;13.448;2023-12-20T14:18:43;0.00;;;0.00;;
82028;SDS011;71590;52.216;13.448;2023-12-20T14:21:09;0.00;;;0.00;;
82028;SDS011;71590;52.216;13.448;2023-12-20T14:23:36;0.00;;;0.00;;
82028;SDS011;71590;52.216;13.448;2023-12-20T14:26:03;0.00;;;0.00;;
82028;SDS011;71590;52.216;13.448;2023-12-20T14:28:30;0.00;;;0.00;;
82028;SDS011;71590;52.216;13.448;2023-12-20T14:30:57;0.00;;;0.00;;
82028;SDS011;71590;52.216;13.448;2023-12-20T14:33:24;1.03;;;0.37;;
82028;SDS011;71590;52.216;13.448;2023-12-20T14:35:52;4.27;;;0.73;;
82028;SDS011;71590;52.216;13.448;2023-12-20T14:38:18;0.00;;;0.00;;
82028;SDS011;71590;52.216;13.448;2023-12-20T14:40:45;0.00;;;0.00;;
82028;SDS011;71590;52.216;13.448;2023-12-20T14:43:12;0.27;;;0.27;;
82028;SDS011;71590;52.216;13.448;2023-12-20T14:45:39;0.00;;;0.00;;
82028;SDS011;71590;52.216;13.448;2023-12-20T14:48:05;0.00;;;0.00;;